createdAt,value
2019-02-12T00:00:35.076Z,17.68
2019-02-12T00:01:15.697Z,17.72
2019-02-12T00:01:56.338Z,17.71
2019-02-12T00:02:36.956Z,17.68
2019-02-12T00:03:17.551Z,17.64
2019-02-12T00:03:58.231Z,17.58
2019-02-12T00:04:38.822Z,17.68
2019-02-12T00:05:19.428Z,17.59
2019-02-12T00:06:00.139Z,17.56
2019-02-12T00:06:40.752Z,17.59
2019-02-12T00:07:21.372Z,17.62
2019-02-12T00:08:01.992Z,17.62
2019-02-12T00:08:42.636Z,17.62
2019-02-12T00:09:23.320Z,17.58
2019-02-12T00:10:03.916Z,17.66
2019-02-12T00:10:44.531Z,17.56
2019-02-12T00:11:25.166Z,17.62
2019-02-12T00:12:05.756Z,17.55
2019-02-12T00:12:46.338Z,17.56
2019-02-12T00:13:26.980Z,17.58
2019-02-12T00:14:07.617Z,17.7
2019-02-12T00:14:48.243Z,17.66
2019-02-12T00:15:28.867Z,17.56
2019-02-12T00:16:09.462Z,17.59
2019-02-12T00:16:50.056Z,17.59
2019-02-12T00:17:30.650Z,17.66
2019-02-12T00:18:11.250Z,17.51
2019-02-12T00:18:51.832Z,17.44
2019-02-12T00:19:32.474Z,17.49
2019-02-12T00:20:13.088Z,17.64
2019-02-12T00:20:53.687Z,17.49
2019-02-12T00:21:34.292Z,17.52
2019-02-12T00:22:14.886Z,17.48
2019-02-12T00:22:55.483Z,17.51
2019-02-12T00:23:36.124Z,17.52
2019-02-12T00:24:16.721Z,17.49
2019-02-12T00:24:57.310Z,17.46
2019-02-12T00:25:37.898Z,17.49
2019-02-12T00:26:18.527Z,17.52
2019-02-12T00:26:59.134Z,17.46
2019-02-12T00:27:39.745Z,17.56
2019-02-12T00:28:20.330Z,17.46
2019-02-12T00:29:00.926Z,17.54
2019-02-12T00:29:41.508Z,17.48
2019-02-12T00:30:22.102Z,17.48
2019-02-12T00:31:02.722Z,17.52
2019-02-12T00:31:43.303Z,17.49
2019-02-12T00:32:23.920Z,17.48
2019-02-12T00:33:04.518Z,17.54
2019-02-12T00:33:45.159Z,17.49
2019-02-12T00:34:25.722Z,17.46
2019-02-12T00:35:06.358Z,17.54
2019-02-12T00:35:46.966Z,17.49
2019-02-12T00:36:27.562Z,17.54
2019-02-12T00:37:08.162Z,17.49
2019-02-12T00:37:48.746Z,17.46
2019-02-12T00:38:29.326Z,17.43
2019-02-12T00:39:09.930Z,17.41
2019-02-12T00:39:50.537Z,17.54
2019-02-12T00:40:31.127Z,17.44
2019-02-12T00:41:11.814Z,17.48
2019-02-12T00:41:52.434Z,17.49
2019-02-12T00:42:33.032Z,17.51
2019-02-12T00:43:13.630Z,17.38
2019-02-12T00:43:54.250Z,17.41
2019-02-12T00:44:34.848Z,17.51
2019-02-12T00:45:15.450Z,17.44
2019-02-12T00:45:56.040Z,17.51
2019-02-12T00:46:36.666Z,17.54
2019-02-12T00:47:17.282Z,17.38
2019-02-12T00:47:57.874Z,17.38
2019-02-12T00:48:38.486Z,17.52
2019-02-12T00:49:19.081Z,17.4
2019-02-12T00:49:59.670Z,17.41
2019-02-12T00:50:40.257Z,17.44
2019-02-12T00:51:20.857Z,17.46
2019-02-12T00:52:01.438Z,17.51
2019-02-12T00:52:42.030Z,17.41
2019-02-12T00:53:22.618Z,17.43
2019-02-12T00:54:03.216Z,17.44
2019-02-12T00:54:43.830Z,17.4
2019-02-12T00:55:24.466Z,17.41
2019-02-12T00:56:05.062Z,17.44
2019-02-12T00:56:45.654Z,17.38
2019-02-12T00:57:26.234Z,17.38
2019-02-12T00:58:06.830Z,17.41
2019-02-12T00:58:47.424Z,17.37
2019-02-12T00:59:28.036Z,17.43
2019-02-12T01:00:08.618Z,17.4
2019-02-12T01:00:49.208Z,17.41
2019-02-12T01:01:29.810Z,17.41
2019-02-12T01:02:10.428Z,17.36
2019-02-12T01:02:51.044Z,17.41
2019-02-12T01:03:31.652Z,17.55
2019-02-12T01:04:12.265Z,17.43
2019-02-12T01:04:52.859Z,17.56
2019-02-12T01:05:33.448Z,17.44
2019-02-12T01:06:14.052Z,17.37
2019-02-12T01:06:54.661Z,17.38
2019-02-12T01:07:35.274Z,17.44
2019-02-12T01:08:15.861Z,17.37
2019-02-12T01:08:56.456Z,17.4
2019-02-12T01:09:37.092Z,17.4
2019-02-12T01:10:17.690Z,17.41
2019-02-12T01:10:58.326Z,17.44
2019-02-12T01:11:38.920Z,17.4
2019-02-12T01:12:19.542Z,17.36
2019-02-12T01:13:00.139Z,17.38
2019-02-12T01:13:40.780Z,17.56
2019-02-12T01:14:21.372Z,17.41
2019-02-12T01:15:01.971Z,17.33
2019-02-12T01:15:42.622Z,17.41
2019-02-12T01:16:23.214Z,17.37
2019-02-12T01:17:03.841Z,17.38
2019-02-12T01:17:44.412Z,17.38
2019-02-12T01:18:25.000Z,17.37
2019-02-12T01:19:05.591Z,17.37
2019-02-12T01:19:46.182Z,17.37
2019-02-12T01:20:26.782Z,17.43
2019-02-12T01:21:07.382Z,17.43
2019-02-12T01:21:47.964Z,17.41
2019-02-12T01:22:28.538Z,17.34
2019-02-12T01:23:09.125Z,17.46
2019-02-12T01:23:49.724Z,17.37
2019-02-12T01:24:30.324Z,17.4
2019-02-12T01:25:10.937Z,17.44
2019-02-12T01:25:51.533Z,17.37
2019-02-12T01:26:32.138Z,17.49
2019-02-12T01:27:12.720Z,17.4
2019-02-12T01:27:53.314Z,17.46
2019-02-12T01:28:33.910Z,17.43
2019-02-12T01:29:14.539Z,17.46
2019-02-12T01:29:55.122Z,17.44
2019-02-12T01:30:35.738Z,17.48
2019-02-12T01:31:16.355Z,17.46
2019-02-12T01:31:56.974Z,17.44
2019-02-12T01:32:37.559Z,17.48
2019-02-12T01:33:18.148Z,17.37
2019-02-12T01:33:58.738Z,17.4
2019-02-12T01:34:39.340Z,17.46
2019-02-12T01:35:19.948Z,17.46
2019-02-12T01:36:00.552Z,17.48
2019-02-12T01:36:41.143Z,17.33
2019-02-12T01:37:21.733Z,17.44
2019-02-12T01:38:02.333Z,17.46
2019-02-12T01:38:42.918Z,17.44
2019-02-12T01:39:23.522Z,17.46
2019-02-12T01:40:04.104Z,17.46
2019-02-12T01:40:45.834Z,17.49
2019-02-12T01:41:25.300Z,17.49
2019-02-12T01:42:05.922Z,17.43
2019-02-12T01:42:46.522Z,17.46
2019-02-12T01:43:27.117Z,17.41
2019-02-12T01:44:07.722Z,17.38
2019-02-12T01:44:48.574Z,17.41
2019-02-12T01:45:28.993Z,17.43
2019-02-12T01:46:09.660Z,17.4
2019-02-12T01:46:50.339Z,17.41
2019-02-12T01:47:30.935Z,17.34
2019-02-12T01:48:11.541Z,17.43
2019-02-12T01:48:52.164Z,17.44
2019-02-12T01:49:32.785Z,17.51
2019-02-12T01:50:13.382Z,17.44
2019-02-12T01:50:54.007Z,17.44
2019-02-12T01:51:35.203Z,17.36
2019-02-12T01:52:15.274Z,17.37
2019-02-12T01:52:55.876Z,17.46
2019-02-12T01:53:36.472Z,17.36
2019-02-12T01:54:17.085Z,17.38
2019-02-12T01:54:57.747Z,17.51
2019-02-12T01:55:38.417Z,17.41
2019-02-12T01:56:19.053Z,17.37
2019-02-12T01:56:59.644Z,17.48
2019-02-12T01:57:40.231Z,17.41
2019-02-12T01:58:21.598Z,17.51
2019-02-12T01:59:02.228Z,17.36
2019-02-12T01:59:42.858Z,17.49
2019-02-12T02:00:23.443Z,17.4
2019-02-12T02:01:04.044Z,17.37
2019-02-12T02:01:44.651Z,17.48
2019-02-12T02:02:25.238Z,17.37
2019-02-12T02:03:05.845Z,17.43
2019-02-12T02:03:46.478Z,17.43
2019-02-12T02:04:27.093Z,17.46
2019-02-12T02:05:07.735Z,17.46
2019-02-12T02:05:48.308Z,17.36
2019-02-12T02:06:28.905Z,17.43
2019-02-12T02:07:09.631Z,17.34
2019-02-12T02:07:50.372Z,17.43
2019-02-12T02:08:30.989Z,17.33
2019-02-12T02:09:11.647Z,17.34
2019-02-12T02:09:52.277Z,17.34
2019-02-12T02:10:32.938Z,17.43
2019-02-12T02:11:13.543Z,17.3
2019-02-12T02:11:54.159Z,17.31
2019-02-12T02:12:34.771Z,17.44
2019-02-12T02:13:15.371Z,17.33
2019-02-12T02:13:56.025Z,17.4
2019-02-12T02:14:36.615Z,17.46
2019-02-12T02:15:17.241Z,17.44
2019-02-12T02:15:57.825Z,17.41
2019-02-12T02:16:38.432Z,17.4
2019-02-12T02:17:19.042Z,17.43
2019-02-12T02:17:59.648Z,17.41
2019-02-12T02:18:40.237Z,17.4
2019-02-12T02:19:20.883Z,17.41
2019-02-12T02:20:01.487Z,17.4
2019-02-12T02:20:42.156Z,17.41
2019-02-12T02:21:22.818Z,17.4
2019-02-12T02:22:03.459Z,17.43
2019-02-12T02:22:44.064Z,17.44
2019-02-12T02:23:24.682Z,17.41
2019-02-12T02:24:05.278Z,17.41
2019-02-12T02:24:45.879Z,17.37
2019-02-12T02:25:26.541Z,17.33
2019-02-12T02:26:07.263Z,17.38
2019-02-12T02:26:47.923Z,17.34
2019-02-12T02:27:28.586Z,17.37
2019-02-12T02:28:09.333Z,17.41
2019-02-12T02:28:49.917Z,17.4
2019-02-12T02:29:30.562Z,17.46
2019-02-12T02:30:11.177Z,17.34
2019-02-12T02:30:51.775Z,17.41
2019-02-12T02:31:32.475Z,17.41
2019-02-12T02:32:13.140Z,17.43
2019-02-12T02:32:53.799Z,17.38
2019-02-12T02:33:34.419Z,17.37
2019-02-12T02:34:15.095Z,17.38
2019-02-12T02:34:55.748Z,17.33
2019-02-12T02:35:36.404Z,17.36
2019-02-12T02:36:17.009Z,17.34
2019-02-12T02:36:57.627Z,17.4
2019-02-12T02:37:38.240Z,17.4
2019-02-12T02:38:18.955Z,17.36
2019-02-12T02:38:59.563Z,17.4
2019-02-12T02:39:40.201Z,17.31
2019-02-12T02:40:20.823Z,17.34
2019-02-12T02:41:01.412Z,17.34
2019-02-12T02:41:42.021Z,17.31
2019-02-12T02:42:22.676Z,17.31
2019-02-12T02:43:03.273Z,17.34
2019-02-12T02:43:43.884Z,17.31
2019-02-12T02:44:24.467Z,17.37
2019-02-12T02:45:05.045Z,17.31
2019-02-12T02:45:45.634Z,17.38
2019-02-12T02:46:26.245Z,17.36
2019-02-12T02:47:06.833Z,17.34
2019-02-12T02:47:47.426Z,17.36
2019-02-12T02:48:28.039Z,17.38
2019-02-12T02:49:08.633Z,17.34
2019-02-12T02:49:49.232Z,17.31
2019-02-12T02:50:29.830Z,17.31
2019-02-12T02:51:10.425Z,17.3
2019-02-12T02:51:53.856Z,17.36
2019-02-12T02:52:31.624Z,17.37
2019-02-12T02:53:12.249Z,17.28
2019-02-12T02:53:52.859Z,17.26
2019-02-12T02:54:33.463Z,17.31
2019-02-12T02:55:14.057Z,17.28
2019-02-12T02:55:54.663Z,17.19
2019-02-12T02:56:35.267Z,17.31
2019-02-12T02:57:15.851Z,17.25
2019-02-12T02:57:56.587Z,17.26
2019-02-12T02:58:37.172Z,17.19
2019-02-12T02:59:17.771Z,17.25
2019-02-12T02:59:58.369Z,17.34
2019-02-12T03:00:38.978Z,17.21
2019-02-12T03:01:19.586Z,17.28
2019-02-12T03:02:00.199Z,17.3
2019-02-12T03:02:40.799Z,17.22
2019-02-12T03:03:21.396Z,17.25
2019-02-12T03:04:02.001Z,17.22
2019-02-12T03:04:42.608Z,17.33
2019-02-12T03:05:23.231Z,17.22
2019-02-12T03:06:03.829Z,17.21
2019-02-12T03:06:44.430Z,17.19
2019-02-12T03:07:25.028Z,17.19
2019-02-12T03:08:05.642Z,17.23
2019-02-12T03:08:46.251Z,17.25
2019-02-12T03:09:26.851Z,17.26
2019-02-12T03:10:07.453Z,17.18
2019-02-12T03:10:48.050Z,17.18
2019-02-12T03:11:28.659Z,17.18
2019-02-12T03:12:09.246Z,17.26
2019-02-12T03:12:49.831Z,17.33
2019-02-12T03:13:30.454Z,17.3
2019-02-12T03:14:11.042Z,17.33
2019-02-12T03:14:51.631Z,17.18
2019-02-12T03:15:32.221Z,17.21
2019-02-12T03:16:12.810Z,17.19
2019-02-12T03:16:53.408Z,17.19
2019-02-12T03:17:34.020Z,17.22
2019-02-12T03:18:14.628Z,17.25
2019-02-12T03:18:55.245Z,17.18
2019-02-12T03:19:35.833Z,17.22
2019-02-12T03:20:16.431Z,17.19
2019-02-12T03:20:57.023Z,17.21
2019-02-12T03:21:37.622Z,17.22
2019-02-12T03:22:18.206Z,17.21
2019-02-12T03:22:58.811Z,17.23
2019-02-12T03:23:39.400Z,17.22
2019-02-12T03:24:19.989Z,17.25
2019-02-12T03:25:00.593Z,17.19
2019-02-12T03:25:41.187Z,17.19
2019-02-12T03:26:21.781Z,17.22
2019-02-12T03:27:02.381Z,17.19
2019-02-12T03:27:42.983Z,17.18
2019-02-12T03:28:23.595Z,17.3
2019-02-12T03:29:04.204Z,17.22
2019-02-12T03:29:44.797Z,17.16
2019-02-12T03:30:25.395Z,17.18
2019-02-12T03:31:05.990Z,17.19
2019-02-12T03:31:46.598Z,17.16
2019-02-12T03:32:27.191Z,17.16
2019-02-12T03:33:07.794Z,17.15
2019-02-12T03:33:48.409Z,17.18
2019-02-12T03:34:28.998Z,17.21
2019-02-12T03:35:09.594Z,17.19
2019-02-12T03:35:50.207Z,17.22
2019-02-12T03:36:30.809Z,17.19
2019-02-12T03:37:11.396Z,17.18
2019-02-12T03:37:51.988Z,17.21
2019-02-12T03:38:32.622Z,17.25
2019-02-12T03:39:13.231Z,17.23
2019-02-12T03:39:53.841Z,17.21
2019-02-12T03:40:34.458Z,17.22
2019-02-12T03:41:15.082Z,17.23
2019-02-12T03:41:55.686Z,17.22
2019-02-12T03:42:36.283Z,17.21
2019-02-12T03:43:16.885Z,17.15
2019-02-12T03:43:57.473Z,17.22
2019-02-12T03:44:38.069Z,17.16
2019-02-12T03:45:18.675Z,17.19
2019-02-12T03:45:59.283Z,17.18
2019-02-12T03:46:39.876Z,17.21
2019-02-12T03:47:20.483Z,17.19
2019-02-12T03:48:01.088Z,17.18
2019-02-12T03:48:41.690Z,17.21
2019-02-12T03:49:22.293Z,17.21
2019-02-12T03:50:02.886Z,17.21
2019-02-12T03:50:43.490Z,17.21
2019-02-12T03:51:24.131Z,17.18
2019-02-12T03:52:12.573Z,17.21
2019-02-12T03:52:45.314Z,17.23
2019-02-12T03:53:25.933Z,17.22
2019-02-12T03:54:06.541Z,17.14
2019-02-12T03:54:47.135Z,17.21
2019-02-12T03:55:27.733Z,17.15
2019-02-12T03:56:08.327Z,17.22
2019-02-12T03:56:48.933Z,17.16
2019-02-12T03:57:29.520Z,17.19
2019-02-12T03:58:10.137Z,17.19
2019-02-12T03:58:50.735Z,17.19
2019-02-12T03:59:31.335Z,17.14
2019-02-12T04:00:11.934Z,17.15
2019-02-12T04:00:52.543Z,17.19
2019-02-12T04:01:33.166Z,17.16
2019-02-12T04:02:13.762Z,17.15
2019-02-12T04:02:54.359Z,17.18
2019-02-12T04:03:36.548Z,17.14
2019-02-12T04:04:15.656Z,17.11
2019-02-12T04:04:56.224Z,17.08
2019-02-12T04:05:36.836Z,17.08
2019-02-12T04:06:17.417Z,17.08
2019-02-12T04:06:58.025Z,17.18
2019-02-12T04:07:38.671Z,17.16
2019-02-12T04:08:19.262Z,17.11
2019-02-12T04:08:59.867Z,17.18
2019-02-12T04:09:40.462Z,17.12
2019-02-12T04:10:21.085Z,17.14
2019-02-12T04:11:01.675Z,17.21
2019-02-12T04:11:42.270Z,17.14
2019-02-12T04:12:22.877Z,17.18
2019-02-12T04:13:03.490Z,17.14
2019-02-12T04:13:44.074Z,17.14
2019-02-12T04:14:24.684Z,17.08
2019-02-12T04:15:05.280Z,17.21
2019-02-12T04:15:45.903Z,17.21
2019-02-12T04:16:26.498Z,17.07
2019-02-12T04:17:07.071Z,17.14
2019-02-12T04:17:47.705Z,17.16
2019-02-12T04:18:28.312Z,17.19
2019-02-12T04:19:08.901Z,17.14
2019-02-12T04:19:49.501Z,17.16
2019-02-12T04:20:30.140Z,17.16
2019-02-12T04:21:10.737Z,17.22
2019-02-12T04:21:51.325Z,17.11
2019-02-12T04:22:31.919Z,17.14
2019-02-12T04:23:12.512Z,17.12
2019-02-12T04:23:53.143Z,17.12
2019-02-12T04:24:33.729Z,17.18
2019-02-12T04:25:14.321Z,17.16
2019-02-12T04:25:54.938Z,17.12
2019-02-12T04:26:35.545Z,17.11
2019-02-12T04:27:16.133Z,17.16
2019-02-12T04:27:56.731Z,17.16
2019-02-12T04:28:37.339Z,17.16
2019-02-12T04:29:17.935Z,17.12
2019-02-12T04:31:18.191Z,17.14
2019-02-12T04:31:58.792Z,17.14
2019-02-12T04:32:39.383Z,17.14
2019-02-12T04:33:19.979Z,17.12
2019-02-12T04:34:00.562Z,17.19
2019-02-12T04:34:41.159Z,17.12
2019-02-12T04:35:21.757Z,17.08
2019-02-12T04:36:02.342Z,17.07
2019-02-12T04:36:42.936Z,17.07
2019-02-12T04:37:23.614Z,17.08
2019-02-12T04:38:04.205Z,17.07
2019-02-12T04:38:44.805Z,17.08
2019-02-12T04:39:25.395Z,17.11
2019-02-12T04:40:05.981Z,17.07
2019-02-12T04:40:46.614Z,17.14
2019-02-12T04:41:27.181Z,17.11
2019-02-12T04:42:07.793Z,17.07
2019-02-12T04:42:48.373Z,17.11
2019-02-12T04:43:28.980Z,17.08
2019-02-12T04:44:09.577Z,17.07
2019-02-12T04:44:50.203Z,17.07
2019-02-12T04:45:30.793Z,17.15
2019-02-12T04:46:11.383Z,17.14
2019-02-12T04:46:51.973Z,17.11
2019-02-12T04:47:32.560Z,17.08
2019-02-12T04:48:13.159Z,17.16
2019-02-12T04:48:53.763Z,17.04
2019-02-12T04:49:34.375Z,17.07
2019-02-12T04:50:14.977Z,17.08
2019-02-12T04:50:55.572Z,17.07
2019-02-12T04:51:36.139Z,17.14
2019-02-12T04:52:16.735Z,17.14
2019-02-12T04:52:57.326Z,17.11
2019-02-12T04:53:37.921Z,17.07
2019-02-12T04:54:18.529Z,17.04
2019-02-12T04:54:59.114Z,17.12
2019-02-12T04:55:39.728Z,17.06
2019-02-12T04:56:20.304Z,17.03
2019-02-12T04:57:00.931Z,17.01
2019-02-12T04:57:41.488Z,17.01
2019-02-12T04:58:22.086Z,17.03
2019-02-12T04:59:02.667Z,17.11
2019-02-12T04:59:43.281Z,17.04
2019-02-12T05:00:23.902Z,17.04
2019-02-12T05:01:04.525Z,17.12
2019-02-12T05:01:45.125Z,17.03
2019-02-12T05:02:25.723Z,17.03
2019-02-12T05:03:06.313Z,17.07
2019-02-12T05:03:46.893Z,17.11
2019-02-12T05:04:27.501Z,17.07
2019-02-12T05:05:08.107Z,17.04
2019-02-12T05:05:48.733Z,17.11
2019-02-12T05:06:29.327Z,17.11
2019-02-12T05:07:09.936Z,17.11
2019-02-12T05:07:50.525Z,17.06
2019-02-12T05:08:31.126Z,17.11
2019-02-12T05:09:11.705Z,17.14
2019-02-12T05:09:52.305Z,17.07
2019-02-12T05:10:32.888Z,17.04
2019-02-12T05:11:13.490Z,17.06
2019-02-12T05:11:54.087Z,17.14
2019-02-12T05:12:34.707Z,17.06
2019-02-12T05:13:15.305Z,17.11
2019-02-12T05:13:55.901Z,17.11
2019-02-12T05:14:36.487Z,17.06
2019-02-12T05:15:17.081Z,17.07
2019-02-12T05:15:57.655Z,17.12
2019-02-12T05:16:38.239Z,17.11
2019-02-12T05:17:18.823Z,17.04
2019-02-12T05:17:59.403Z,17.01
2019-02-12T05:18:40.027Z,17.12
2019-02-12T05:19:20.645Z,17.12
2019-02-12T05:20:01.251Z,17.08
2019-02-12T05:20:41.836Z,17.01
2019-02-12T05:21:22.522Z,17.01
2019-02-12T05:22:03.033Z,17.08
2019-02-12T05:22:44.018Z,17.08
2019-02-12T05:23:24.221Z,17.03
2019-02-12T05:24:04.832Z,17.11
2019-02-12T05:24:45.421Z,17.07
2019-02-12T05:25:25.998Z,17.08
2019-02-12T05:26:06.595Z,16.98
2019-02-12T05:26:47.181Z,16.98
2019-02-12T05:27:27.827Z,17.03
2019-02-12T05:28:08.425Z,17.03
2019-02-12T05:28:49.029Z,17.11
2019-02-12T05:29:29.639Z,17.01
2019-02-12T05:30:10.217Z,17.08
2019-02-12T05:30:50.813Z,17.01
2019-02-12T05:31:31.414Z,17.12
2019-02-12T05:32:12.018Z,17.03
2019-02-12T05:32:52.605Z,17.12
2019-02-12T05:33:33.235Z,17.01
2019-02-12T05:34:13.891Z,16.98
2019-02-12T05:34:55.832Z,17.07
2019-02-12T05:35:35.077Z,17.06
2019-02-12T05:36:15.678Z,17.01
2019-02-12T05:36:56.285Z,17.01
2019-02-12T05:37:36.891Z,17
2019-02-12T05:38:17.485Z,16.98
2019-02-12T05:38:58.098Z,17.04
2019-02-12T05:39:38.696Z,17
2019-02-12T05:40:19.282Z,16.98
2019-02-12T05:40:59.890Z,17.01
2019-02-12T05:41:40.477Z,17.01
2019-02-12T05:42:21.059Z,17.07
2019-02-12T05:43:01.653Z,17.01
2019-02-12T05:43:42.247Z,17.01
2019-02-12T05:44:22.837Z,17.01
2019-02-12T05:45:03.431Z,16.97
2019-02-12T05:45:44.033Z,17.06
2019-02-12T05:46:24.623Z,17.04
2019-02-12T05:47:06.935Z,16.97
2019-02-12T05:47:45.822Z,16.97
2019-02-12T05:48:26.429Z,17.01
2019-02-12T05:49:07.014Z,17.04
2019-02-12T05:49:47.628Z,16.97
2019-02-12T05:50:28.222Z,16.96
2019-02-12T05:51:08.836Z,16.97
2019-02-12T05:51:49.454Z,16.98
2019-02-12T05:52:30.056Z,16.96
2019-02-12T05:53:10.663Z,17.04
2019-02-12T05:53:51.265Z,16.93
2019-02-12T05:54:31.863Z,17.03
2019-02-12T05:55:12.458Z,16.89
2019-02-12T05:55:53.068Z,16.96
2019-02-12T05:56:33.688Z,17.01
2019-02-12T05:57:14.319Z,16.93
2019-02-12T05:57:54.943Z,16.93
2019-02-12T05:58:35.547Z,16.98
2019-02-12T05:59:16.147Z,16.91
2019-02-12T05:59:56.791Z,16.91
2019-02-12T06:00:37.385Z,16.93
2019-02-12T06:01:17.972Z,17
2019-02-12T06:01:58.557Z,16.94
2019-02-12T06:02:39.163Z,17.01
2019-02-12T06:03:19.762Z,16.94
2019-02-12T06:04:00.366Z,16.94
2019-02-12T06:04:40.963Z,16.94
2019-02-12T06:05:21.537Z,16.91
2019-02-12T06:06:02.181Z,16.94
2019-02-12T06:06:42.762Z,16.96
2019-02-12T06:07:23.396Z,16.98
2019-02-12T06:08:03.997Z,17.04
2019-02-12T06:08:44.623Z,17.03
2019-02-12T06:09:25.225Z,16.97
2019-02-12T06:10:05.843Z,16.96
2019-02-12T06:10:46.437Z,16.91
2019-02-12T06:11:27.955Z,16.94
2019-02-12T06:12:08.539Z,16.94
2019-02-12T06:12:49.147Z,16.94
2019-02-12T06:13:29.753Z,16.98
2019-02-12T06:14:10.357Z,16.97
2019-02-12T06:14:50.973Z,16.96
2019-02-12T06:15:31.570Z,16.91
2019-02-12T06:16:12.244Z,17
2019-02-12T06:16:52.784Z,16.96
2019-02-12T06:17:33.409Z,16.88
2019-02-12T06:18:14.007Z,16.98
2019-02-12T06:18:54.614Z,17.01
2019-02-12T06:19:35.211Z,16.98
2019-02-12T06:20:15.817Z,16.96
2019-02-12T06:20:56.417Z,16.97
2019-02-12T06:21:37.037Z,16.97
2019-02-12T06:22:17.662Z,16.93
2019-02-12T06:23:03.581Z,16.98
2019-02-12T06:23:38.872Z,16.94
2019-02-12T06:24:19.467Z,16.94
2019-02-12T06:25:00.116Z,16.96
2019-02-12T06:25:40.701Z,16.91
2019-02-12T06:26:21.287Z,16.94
2019-02-12T06:27:01.881Z,16.94
2019-02-12T06:27:42.491Z,16.91
2019-02-12T06:28:23.085Z,16.88
2019-02-12T06:29:03.703Z,16.96
2019-02-12T06:29:44.297Z,16.86
2019-02-12T06:30:24.895Z,16.93
2019-02-12T06:31:05.507Z,16.89
2019-02-12T06:31:46.204Z,16.93
2019-02-12T06:32:26.753Z,16.89
2019-02-12T06:33:07.928Z,16.86
2019-02-12T06:33:47.964Z,16.88
2019-02-12T06:34:28.563Z,16.88
2019-02-12T06:35:09.183Z,16.93
2019-02-12T06:35:49.877Z,16.88
2019-02-12T06:36:30.543Z,17
2019-02-12T06:37:11.135Z,16.93
2019-02-12T06:37:51.731Z,16.97
2019-02-12T06:38:32.321Z,16.89
2019-02-12T06:39:12.915Z,16.94
2019-02-12T06:39:53.516Z,16.94
2019-02-12T06:40:34.113Z,16.91
2019-02-12T06:41:14.709Z,16.86
2019-02-12T06:41:55.300Z,16.86
2019-02-12T06:42:35.881Z,16.91
2019-02-12T06:43:16.501Z,16.91
2019-02-12T06:43:57.140Z,16.96
2019-02-12T06:44:37.742Z,16.88
2019-02-12T06:45:18.343Z,16.91
2019-02-12T06:45:58.931Z,16.93
2019-02-12T06:46:39.543Z,16.94
2019-02-12T06:47:20.182Z,16.89
2019-02-12T06:48:00.791Z,16.96
2019-02-12T06:48:41.407Z,16.98
2019-02-12T06:49:21.993Z,16.96
2019-02-12T06:50:02.599Z,16.93
2019-02-12T06:50:43.183Z,16.96
2019-02-12T06:51:23.787Z,16.93
2019-02-12T06:52:04.401Z,16.98
2019-02-12T06:52:44.985Z,16.88
2019-02-12T06:53:25.570Z,17
2019-02-12T06:54:06.165Z,16.91
2019-02-12T06:54:46.767Z,16.91
2019-02-12T06:55:27.363Z,16.89
2019-02-12T06:56:07.937Z,16.98
2019-02-12T06:56:48.527Z,16.91
2019-02-12T06:57:29.117Z,16.89
2019-02-12T06:58:09.721Z,16.96
2019-02-12T06:58:50.338Z,16.96
2019-02-12T06:59:30.929Z,16.93
2019-02-12T07:00:11.520Z,16.96
2019-02-12T07:00:52.109Z,17.01
2019-02-12T07:01:32.703Z,16.88
2019-02-12T07:02:13.278Z,16.93
2019-02-12T07:02:53.867Z,16.98
2019-02-12T07:03:34.447Z,16.96
2019-02-12T07:04:15.031Z,16.93
2019-02-12T07:04:55.625Z,16.94
2019-02-12T07:05:36.223Z,16.96
2019-02-12T07:06:16.833Z,16.89
2019-02-12T07:06:57.428Z,16.86
2019-02-12T07:07:38.017Z,16.96
2019-02-12T07:08:18.617Z,16.93
2019-02-12T07:08:59.208Z,16.93
2019-02-12T07:09:39.801Z,17
2019-02-12T07:10:20.395Z,16.93
2019-02-12T07:11:01.003Z,16.93
2019-02-12T07:11:41.589Z,16.89
2019-02-12T07:12:22.203Z,16.96
2019-02-12T07:13:03.287Z,16.89
2019-02-12T07:13:43.457Z,16.93
2019-02-12T07:14:24.049Z,16.93
2019-02-12T07:15:04.669Z,17.03
2019-02-12T07:15:45.297Z,17.04
2019-02-12T07:16:25.936Z,16.98
2019-02-12T07:17:06.526Z,17.04
2019-02-12T07:17:47.136Z,16.97
2019-02-12T07:18:27.725Z,16.94
2019-02-12T07:19:08.321Z,16.98
2019-02-12T07:19:48.923Z,16.91
2019-02-12T07:20:29.537Z,17
2019-02-12T07:21:10.139Z,16.93
2019-02-12T07:21:50.741Z,16.94
2019-02-12T07:22:31.335Z,16.93
2019-02-12T07:23:11.947Z,16.97
2019-02-12T07:23:52.541Z,16.98
2019-02-12T07:24:33.143Z,16.89
2019-02-12T07:25:13.768Z,16.98
2019-02-12T07:25:55.214Z,16.96
2019-02-12T07:26:34.975Z,16.96
2019-02-12T07:27:15.563Z,16.96
2019-02-12T07:27:56.167Z,16.96
2019-02-12T07:28:36.776Z,16.96
2019-02-12T07:29:17.367Z,17
2019-02-12T07:29:57.963Z,16.91
2019-02-12T07:30:38.555Z,16.97
2019-02-12T07:31:19.174Z,17
2019-02-12T07:31:59.803Z,16.96
2019-02-12T07:32:40.401Z,16.96
2019-02-12T07:33:21.029Z,16.94
2019-02-12T07:34:01.617Z,16.93
2019-02-12T07:34:42.242Z,16.98
2019-02-12T07:35:22.821Z,16.91
2019-02-12T07:36:03.469Z,16.91
2019-02-12T07:36:44.071Z,16.94
2019-02-12T07:37:24.706Z,17
2019-02-12T07:38:05.306Z,16.93
2019-02-12T07:38:45.938Z,16.89
2019-02-12T07:39:26.608Z,17
2019-02-12T07:40:07.200Z,16.98
2019-02-12T07:40:47.800Z,16.91
2019-02-12T07:41:28.419Z,16.91
2019-02-12T07:42:09.019Z,16.94
2019-02-12T07:42:49.612Z,16.93
2019-02-12T07:43:30.211Z,16.93
2019-02-12T07:44:10.809Z,16.97
2019-02-12T07:44:51.426Z,16.93
2019-02-12T07:45:32.025Z,16.97
2019-02-12T07:46:12.611Z,16.97
2019-02-12T07:46:53.239Z,16.91
2019-02-12T07:47:33.839Z,17.03
2019-02-12T07:48:14.436Z,16.89
2019-02-12T07:48:55.059Z,16.94
2019-02-12T07:49:35.653Z,16.96
2019-02-12T07:50:16.281Z,17.03
2019-02-12T07:50:56.873Z,17
2019-02-12T07:51:37.451Z,17
2019-02-12T07:52:18.057Z,17.01
2019-02-12T07:52:58.669Z,16.97
2019-02-12T07:53:39.263Z,16.93
2019-02-12T07:54:19.888Z,16.89
2019-02-12T07:55:00.493Z,17.04
2019-02-12T07:55:41.074Z,16.93
2019-02-12T07:56:21.670Z,16.93
2019-02-12T07:57:02.269Z,17.04
2019-02-12T07:57:42.873Z,16.94
2019-02-12T07:58:23.457Z,16.94
2019-02-12T07:59:04.050Z,16.98
2019-02-12T07:59:44.635Z,16.96
2019-02-12T08:00:25.227Z,16.93
2019-02-12T08:01:05.841Z,17
2019-02-12T08:01:46.446Z,16.93
2019-02-12T08:02:27.056Z,16.94
2019-02-12T08:03:07.665Z,17.03
2019-02-12T08:03:48.245Z,16.91
2019-02-12T08:04:28.843Z,17.04
2019-02-12T08:05:09.468Z,16.93
2019-02-12T08:05:50.057Z,16.97
2019-02-12T08:06:30.659Z,16.94
2019-02-12T08:07:11.278Z,16.96
2019-02-12T08:07:51.885Z,17.01
2019-02-12T08:08:32.513Z,16.93
2019-02-12T08:09:13.099Z,17.03
2019-02-12T08:09:53.693Z,16.97
2019-02-12T08:10:34.284Z,17.07
2019-02-12T08:11:14.887Z,16.98
2019-02-12T08:11:55.606Z,17.04
2019-02-12T08:12:36.449Z,17.01
2019-02-12T08:13:17.140Z,17.01
2019-02-12T08:13:57.725Z,16.98
2019-02-12T08:14:38.319Z,17.06
2019-02-12T08:15:18.907Z,16.98
2019-02-12T08:15:59.513Z,17
2019-02-12T08:16:40.102Z,16.98
2019-02-12T08:17:20.706Z,17.01
2019-02-12T08:18:01.323Z,16.98
2019-02-12T08:18:41.908Z,16.98
2019-02-12T08:19:22.526Z,16.98
2019-02-12T08:20:03.119Z,17
2019-02-12T08:20:43.800Z,17.01
2019-02-12T08:21:24.406Z,16.97
2019-02-12T08:22:05.010Z,17.01
2019-02-12T08:22:45.622Z,17
2019-02-12T08:23:26.231Z,17.07
2019-02-12T08:24:06.821Z,16.98
2019-02-12T08:24:47.423Z,17.08
2019-02-12T08:25:28.025Z,17.03
2019-02-12T08:26:08.611Z,17.12
2019-02-12T08:26:49.231Z,17.06
2019-02-12T08:27:29.827Z,17.11
2019-02-12T08:28:10.437Z,17.08
2019-02-12T08:28:52.128Z,17.07
2019-02-12T08:29:31.666Z,17.08
2019-02-12T08:30:12.275Z,17.14
2019-02-12T08:30:52.872Z,17.06
2019-02-12T08:31:33.485Z,17.08
2019-02-12T08:32:14.089Z,17.06
2019-02-12T08:32:54.707Z,17.12
2019-02-12T08:33:35.311Z,17.06
2019-02-12T08:34:15.916Z,17.08
2019-02-12T08:34:56.512Z,17.11
2019-02-12T08:35:37.110Z,17.11
2019-02-12T08:36:17.718Z,17.12
2019-02-12T08:36:58.381Z,17.08
2019-02-12T08:37:39.013Z,17.14
2019-02-12T08:38:19.621Z,17.03
2019-02-12T08:39:00.229Z,17.07
2019-02-12T08:39:40.843Z,17.03
2019-02-12T08:40:21.507Z,17.11
2019-02-12T08:41:02.120Z,17.08
2019-02-12T08:41:42.718Z,17.08
2019-02-12T08:42:23.323Z,17.06
2019-02-12T08:43:03.934Z,17.04
2019-02-12T08:43:44.532Z,17.12
2019-02-12T08:44:25.166Z,17.06
2019-02-12T08:45:05.785Z,17.07
2019-02-12T08:45:46.379Z,17.06
2019-02-12T08:46:26.991Z,17.07